createdAt,value
2024-04-19T00:01:58.292Z,3.82
2024-04-19T00:04:27.312Z,3.78
2024-04-19T00:06:56.443Z,3.76
2024-04-19T00:09:25.485Z,3.73
2024-04-19T00:11:54.514Z,3.69
2024-04-19T00:14:23.426Z,3.65
2024-04-19T00:16:58.087Z,3.61
2024-04-19T00:19:27.114Z,3.56
2024-04-19T00:21:56.037Z,3.54
2024-04-19T00:24:24.952Z,3.54
2024-04-19T00:26:53.970Z,3.54
2024-04-19T00:29:45.006Z,3.54
2024-04-19T00:32:13.986Z,3.55
2024-04-19T00:34:43.085Z,3.56
2024-04-19T00:37:12.143Z,3.56
2024-04-19T00:39:41.153Z,3.56
2024-04-19T00:42:10.188Z,3.56
2024-04-19T00:44:39.386Z,3.57
2024-04-19T00:47:08.752Z,3.55
2024-04-19T00:49:38.985Z,3.55
2024-04-19T00:52:09.514Z,3.56
2024-04-19T00:54:38.883Z,3.56
2024-04-19T00:57:08.809Z,3.54
2024-04-19T00:59:38.254Z,3.51
2024-04-19T01:02:08.003Z,3.49
2024-04-19T01:04:36.990Z,3.49
2024-04-19T01:07:06.224Z,3.50
2024-04-19T01:09:35.288Z,3.51
2024-04-19T01:12:05.900Z,3.51
2024-04-19T01:14:34.812Z,3.53
2024-04-19T01:17:03.915Z,3.52
2024-04-19T01:19:32.852Z,3.53
2024-04-19T01:22:01.934Z,3.56
2024-04-19T01:24:36.339Z,3.58
2024-04-19T01:27:08.878Z,3.60
2024-04-19T01:29:38.373Z,3.62
2024-04-19T01:32:08.293Z,3.63
2024-04-19T01:34:37.201Z,3.65
2024-04-19T01:37:06.414Z,3.67
2024-04-19T01:39:35.453Z,3.69
2024-04-19T01:42:05.188Z,3.73
2024-04-19T01:44:34.075Z,3.73
2024-04-19T01:47:03.500Z,3.72
2024-04-19T01:49:32.564Z,3.72
2024-04-19T01:52:02.036Z,3.73
2024-04-19T01:54:30.957Z,3.76
2024-04-19T01:57:02.602Z,3.79
2024-04-19T01:59:31.547Z,3.80
2024-04-19T02:02:00.578Z,3.80
2024-04-19T02:04:31.939Z,3.81
2024-04-19T02:07:00.963Z,3.81
2024-04-19T02:09:39.125Z,3.82
2024-04-19T02:12:08.314Z,3.84
2024-04-19T02:14:37.239Z,3.85
2024-04-19T02:17:06.312Z,3.86
2024-04-19T02:19:39.926Z,3.87
2024-04-19T02:22:08.984Z,3.88
2024-04-19T02:24:38.178Z,3.90
2024-04-19T02:27:18.639Z,3.90
2024-04-19T02:30:05.798Z,3.91
2024-04-19T02:32:34.863Z,3.89
2024-04-19T02:35:04.822Z,3.88
2024-04-19T02:37:33.802Z,3.84
2024-04-19T02:40:02.799Z,3.79
2024-04-19T02:42:31.779Z,3.76
2024-04-19T02:45:00.764Z,3.75
2024-04-19T02:47:29.789Z,3.72
2024-04-19T02:49:58.674Z,3.70
2024-04-19T02:52:27.557Z,3.65
2024-04-19T02:54:56.495Z,3.62
2024-04-19T02:57:25.492Z,3.60
2024-04-19T02:59:54.473Z,3.61
2024-04-19T03:02:23.432Z,3.64
2024-04-19T03:04:52.678Z,3.67
2024-04-19T03:07:21.695Z,3.68
2024-04-19T03:09:50.642Z,3.71
2024-04-19T03:12:19.693Z,3.73
2024-04-19T03:14:48.784Z,3.77
2024-04-19T03:17:17.864Z,3.80
2024-04-19T03:19:46.966Z,3.83
2024-04-19T03:22:17.426Z,3.88
2024-04-19T03:24:46.861Z,3.93
2024-04-19T03:27:15.985Z,4.01
2024-04-19T03:29:56.127Z,4.08
2024-04-19T03:32:25.619Z,4.14
2024-04-19T03:34:54.805Z,4.18
2024-04-19T03:37:23.784Z,4.22
2024-04-19T03:39:52.795Z,4.24
2024-04-19T03:42:21.913Z,4.28
2024-04-19T03:45:09.510Z,4.31
2024-04-19T03:47:38.620Z,4.34
2024-04-19T03:50:08.492Z,4.38
2024-04-19T03:52:37.404Z,4.42
2024-04-19T03:55:07.424Z,4.47
2024-04-19T03:57:36.418Z,4.50
2024-04-19T04:00:07.706Z,4.53
2024-04-19T04:02:41.478Z,4.56
2024-04-19T04:05:10.608Z,4.57
2024-04-19T04:07:39.529Z,4.59
2024-04-19T04:10:08.941Z,4.58
2024-04-19T04:12:37.962Z,4.56
2024-04-19T04:15:08.088Z,4.56
2024-04-19T04:17:37.153Z,4.57
2024-04-19T04:20:08.231Z,4.58
2024-04-19T04:22:37.421Z,4.59
2024-04-19T04:25:06.788Z,4.59
2024-04-19T04:27:35.891Z,4.60
2024-04-19T04:30:08.981Z,4.63
2024-04-19T04:32:37.981Z,4.65
2024-04-19T04:35:07.178Z,4.68
2024-04-19T04:37:37.395Z,4.71
2024-04-19T04:40:10.016Z,4.71
2024-04-19T04:42:39.834Z,4.73
2024-04-19T04:45:10.425Z,4.75
2024-04-19T04:47:39.620Z,4.78
2024-04-19T04:50:09.108Z,4.80
2024-04-19T04:52:38.103Z,4.86
2024-04-19T04:55:08.283Z,4.88
2024-04-19T04:57:39.503Z,4.90
2024-04-19T05:00:10.131Z,4.94
2024-04-19T05:02:39.539Z,5.00
2024-04-19T05:05:09.001Z,5.03
2024-04-19T05:07:38.050Z,5.04
2024-04-19T05:10:08.202Z,5.04
2024-04-19T05:12:37.227Z,5.04
2024-04-19T05:15:07.780Z,5.01
2024-04-19T05:17:37.457Z,5.00
2024-04-19T05:20:08.170Z,4.96
2024-04-19T05:22:38.549Z,4.92
2024-04-19T05:25:08.809Z,4.85
2024-04-19T05:27:38.973Z,4.79
2024-04-19T05:30:09.325Z,4.74
2024-04-19T05:32:38.629Z,4.69
2024-04-19T05:35:07.745Z,4.68
2024-04-19T05:37:37.151Z,4.67
2024-04-19T05:40:08.110Z,4.68
2024-04-19T05:42:37.099Z,4.70
2024-04-19T05:45:07.268Z,4.72
2024-04-19T05:47:36.435Z,4.74
2024-04-19T05:50:07.743Z,4.77
2024-04-19T05:52:36.705Z,4.80
2024-04-19T05:55:06.396Z,4.81
2024-04-19T05:57:35.710Z,4.81
2024-04-19T06:00:06.690Z,4.83
2024-04-19T06:02:42.177Z,4.87
2024-04-19T06:05:11.361Z,4.93
2024-04-19T06:07:40.325Z,4.97
2024-04-19T06:10:09.625Z,5.01
2024-04-19T06:12:38.558Z,5.07
2024-04-19T06:15:08.300Z,5.13
2024-04-19T06:17:37.422Z,5.18
2024-04-19T06:20:08.837Z,5.22
2024-04-19T06:22:37.860Z,5.22
2024-04-19T06:25:07.219Z,5.22
2024-04-19T06:27:36.631Z,5.22
2024-04-19T06:30:07.875Z,5.23
2024-04-19T06:32:36.960Z,5.27
2024-04-19T06:35:07.550Z,5.30
2024-04-19T06:37:36.516Z,5.28
2024-04-19T06:40:08.391Z,5.28
2024-04-19T06:42:37.423Z,5.30
2024-04-19T06:45:07.616Z,5.30
2024-04-19T06:47:36.638Z,5.30
2024-04-19T06:50:06.816Z,5.33
2024-04-19T06:52:35.772Z,5.37
2024-04-19T06:55:05.743Z,5.42
2024-04-19T06:57:34.826Z,5.47
2024-04-19T07:00:15.950Z,5.52
2024-04-19T07:02:53.863Z,5.57
2024-04-19T07:05:23.153Z,5.62
2024-04-19T07:07:52.483Z,5.67
2024-04-19T07:10:23.338Z,5.73
2024-04-19T07:12:52.621Z,5.83
2024-04-19T07:15:21.726Z,5.91
2024-04-19T07:17:51.775Z,5.98
2024-04-19T07:20:21.938Z,6.05
2024-04-19T07:22:50.924Z,6.11
2024-04-19T07:25:19.902Z,6.19
2024-04-19T07:27:49.004Z,6.25
2024-04-19T07:30:18.374Z,6.31
2024-04-19T07:32:47.430Z,6.40
2024-04-19T07:35:16.955Z,6.46
2024-04-19T07:37:45.981Z,6.51
2024-04-19T07:40:15.132Z,6.55
2024-04-19T07:42:45.732Z,6.59
2024-04-19T07:45:19.246Z,6.61
2024-04-19T07:47:48.376Z,6.67
2024-04-19T07:50:17.711Z,6.77
2024-04-19T07:52:48.158Z,6.84
2024-04-19T07:55:17.768Z,6.86
2024-04-19T07:57:49.062Z,6.91
2024-04-19T08:00:21.943Z,6.97
2024-04-19T08:02:51.008Z,7.03
2024-04-19T08:05:20.147Z,7.15
2024-04-19T08:07:51.874Z,7.33
2024-04-19T08:10:23.470Z,7.57
2024-04-19T08:12:52.743Z,7.74
2024-04-19T08:15:21.837Z,7.84
2024-04-19T08:17:51.568Z,7.93
2024-04-19T08:20:20.652Z,7.92
2024-04-19T08:22:49.784Z,7.92
2024-04-19T08:25:18.990Z,7.92
2024-04-19T08:27:48.137Z,7.89
2024-04-19T08:30:17.412Z,7.88
2024-04-19T08:32:46.660Z,7.91
2024-04-19T08:35:16.013Z,7.96
2024-04-19T08:37:45.024Z,7.97
2024-04-19T08:40:14.605Z,7.96
2024-04-19T08:42:44.349Z,8.01
2024-04-19T08:45:16.196Z,8.08
2024-04-19T08:47:46.903Z,8.12
2024-04-19T08:50:19.385Z,8.06
2024-04-19T08:53:09.533Z,8.01
2024-04-19T08:55:40.243Z,7.99
2024-04-19T08:58:09.955Z,7.99
2024-04-19T09:00:38.971Z,8.00
2024-04-19T09:03:08.140Z,8.02
2024-04-19T09:05:37.266Z,8.06
2024-04-19T09:08:08.298Z,8.17
2024-04-19T09:10:37.339Z,8.25
2024-04-19T09:13:06.495Z,8.33
2024-04-19T09:15:37.206Z,8.44
2024-04-19T09:18:07.291Z,8.62
2024-04-19T09:20:36.243Z,8.82
2024-04-19T09:23:05.598Z,9.10
2024-04-19T09:25:34.817Z,9.26
2024-04-19T09:28:04.142Z,9.36
2024-04-19T09:30:33.104Z,9.45
2024-04-19T09:33:02.229Z,9.57
2024-04-19T09:35:31.479Z,9.67
2024-04-19T09:38:00.547Z,9.66
2024-04-19T09:40:31.942Z,9.67
2024-04-19T09:43:06.829Z,9.80
2024-04-19T09:45:43.818Z,9.94
2024-04-19T09:48:15.517Z,10.00
2024-04-19T09:50:46.917Z,10.03
2024-04-19T09:53:17.689Z,10.10
2024-04-19T09:56:01.246Z,10.26
2024-04-19T09:58:30.827Z,10.44
2024-04-19T10:01:02.017Z,10.56
2024-04-19T10:03:31.378Z,10.51
2024-04-19T10:06:03.286Z,10.41
2024-04-19T10:08:41.924Z,10.30
2024-04-19T10:11:11.157Z,10.19
2024-04-19T10:13:40.502Z,10.10
2024-04-19T10:16:09.430Z,9.99
2024-04-19T10:18:38.849Z,9.90
2024-04-19T10:21:09.034Z,9.86
2024-04-19T10:23:40.400Z,9.89
2024-04-19T10:26:09.619Z,9.94
2024-04-19T10:28:38.538Z,9.94
2024-04-19T10:31:07.822Z,10.00
2024-04-19T10:33:36.859Z,10.00
2024-04-19T10:36:10.402Z,9.94
2024-04-19T10:38:39.677Z,9.87
2024-04-19T10:41:17.503Z,9.80
2024-04-19T10:43:46.551Z,9.80
2024-04-19T10:46:16.469Z,9.91
2024-04-19T10:48:45.826Z,10.07
2024-04-19T10:51:16.509Z,10.22
2024-04-19T10:53:45.479Z,10.37
2024-04-19T10:56:14.435Z,10.35
2024-04-19T10:58:43.487Z,10.26
2024-04-19T11:01:12.456Z,10.19
2024-04-19T11:03:41.661Z,10.13
2024-04-19T11:06:11.756Z,10.15
2024-04-19T11:08:43.035Z,10.14
2024-04-19T11:11:12.047Z,10.12
2024-04-19T11:13:41.059Z,10.07
2024-04-19T11:16:10.146Z,10.00
2024-04-19T11:18:39.362Z,10.08
2024-04-19T11:21:12.018Z,10.15
2024-04-19T11:23:42.879Z,10.23
2024-04-19T11:26:15.477Z,10.28
2024-04-19T11:28:47.941Z,10.41
2024-04-19T11:31:17.518Z,10.58
2024-04-19T11:33:51.809Z,10.76
2024-04-19T11:36:20.839Z,11.00
2024-04-19T11:38:51.504Z,11.14
2024-04-19T11:41:20.548Z,11.14
2024-04-19T11:43:49.528Z,11.06
2024-04-19T11:46:21.740Z,11.03
2024-04-19T11:48:51.370Z,10.98
2024-04-19T11:51:21.399Z,11.00
2024-04-19T11:53:50.433Z,11.12
2024-04-19T11:56:19.414Z,11.23
2024-04-19T11:58:52.947Z,11.42
2024-04-19T12:01:22.394Z,11.58
2024-04-19T12:03:51.628Z,11.71
2024-04-19T12:06:21.910Z,11.90
2024-04-19T12:08:51.428Z,12.04
2024-04-19T12:11:20.372Z,12.11
2024-04-19T12:14:39.030Z,12.25
2024-04-19T12:16:46.704Z,12.39
2024-04-19T12:19:20.423Z,12.43
2024-04-19T12:21:51.079Z,12.47
2024-04-19T12:24:20.882Z,12.55
2024-04-19T12:26:50.313Z,12.51
2024-04-19T12:29:20.292Z,12.44
2024-04-19T12:31:49.687Z,12.40
2024-04-19T12:34:18.750Z,12.43
2024-04-19T12:36:48.927Z,12.58
2024-04-19T12:39:17.965Z,12.55
2024-04-19T12:41:47.467Z,12.50
2024-04-19T12:44:16.384Z,12.46
2024-04-19T12:46:45.245Z,12.49
2024-04-19T12:49:16.094Z,12.53
2024-04-19T12:51:45.226Z,12.60
2024-04-19T12:54:15.380Z,12.57
2024-04-19T12:56:44.417Z,12.53
2024-04-19T12:59:13.926Z,12.50
2024-04-19T13:01:43.159Z,12.43
2024-04-19T13:04:12.240Z,12.46
2024-04-19T13:06:41.254Z,12.54
2024-04-19T13:09:10.235Z,12.64
2024-04-19T13:11:39.170Z,12.71
2024-04-19T13:14:08.282Z,12.75
2024-04-19T13:16:37.235Z,12.71
2024-04-19T13:19:06.272Z,12.65
2024-04-19T13:21:35.192Z,12.56
2024-04-19T13:24:04.755Z,12.39
2024-04-19T13:26:33.896Z,12.25
2024-04-19T13:29:02.862Z,12.20
2024-04-19T13:31:31.837Z,12.25
2024-04-19T13:34:00.859Z,12.27
2024-04-19T13:36:29.831Z,12.31
2024-04-19T13:38:58.807Z,12.26
2024-04-19T13:41:28.407Z,12.13
2024-04-19T13:43:57.918Z,12.09
2024-04-19T13:46:26.933Z,12.09
2024-04-19T13:48:56.011Z,12.06
2024-04-19T13:51:26.515Z,12.02
2024-04-19T13:53:55.586Z,12.07
2024-04-19T13:56:24.558Z,12.12
2024-04-19T13:58:53.425Z,12.07
2024-04-19T14:01:23.172Z,12.01
2024-04-19T14:03:55.530Z,11.97
2024-04-19T14:06:25.612Z,11.91
2024-04-19T14:08:54.562Z,11.92
2024-04-19T14:11:24.304Z,11.93
2024-04-19T14:13:54.162Z,11.87
2024-04-19T14:16:23.974Z,11.76
2024-04-19T14:18:55.087Z,11.67
2024-04-19T14:21:24.508Z,11.60
2024-04-19T14:23:53.530Z,11.59
2024-04-19T14:26:22.611Z,11.56
2024-04-19T14:28:51.577Z,11.54
2024-04-19T14:31:20.478Z,11.53
2024-04-19T14:33:49.466Z,11.54
2024-04-19T14:36:19.113Z,11.51
2024-04-19T14:38:48.986Z,11.44
2024-04-19T14:41:17.941Z,11.38
2024-04-19T14:43:46.904Z,11.34
2024-04-19T14:46:16.078Z,11.32
2024-04-19T14:48:45.167Z,11.30
2024-04-19T14:51:18.147Z,11.26
2024-04-19T14:53:47.912Z,11.22
2024-04-19T14:56:17.220Z,11.23
2024-04-19T14:58:52.817Z,11.24
2024-04-19T15:01:29.596Z,11.26
2024-04-19T15:03:58.766Z,11.29
2024-04-19T15:06:30.695Z,11.30
2024-04-19T15:08:59.678Z,11.28
2024-04-19T15:11:29.117Z,11.23
2024-04-19T15:13:58.098Z,11.14
2024-04-19T15:16:27.080Z,11.05
2024-04-19T15:18:56.062Z,10.92
2024-04-19T15:21:25.100Z,10.82
2024-04-19T15:23:54.151Z,10.73
2024-04-19T15:26:23.151Z,10.67
2024-04-19T15:28:52.154Z,10.61
2024-04-19T15:31:21.172Z,10.56
2024-04-19T15:33:50.215Z,10.52
2024-04-19T15:36:21.108Z,10.48
2024-04-19T15:38:50.170Z,10.43
2024-04-19T15:41:19.621Z,10.41
2024-04-19T15:43:48.771Z,10.39
2024-04-19T15:46:18.299Z,10.35
2024-04-19T15:48:47.401Z,10.30
2024-04-19T15:51:16.547Z,10.25
2024-04-19T15:53:45.570Z,10.21
2024-04-19T15:56:14.550Z,10.17
2024-04-19T15:58:43.479Z,10.13
2024-04-19T16:01:12.465Z,10.10
2024-04-19T16:03:41.883Z,10.07
2024-04-19T16:06:10.996Z,9.99
2024-04-19T16:08:41.569Z,9.89
2024-04-19T16:11:11.080Z,9.81
2024-04-19T16:13:39.991Z,9.73
2024-04-19T16:16:11.039Z,9.63
2024-04-19T16:18:41.593Z,9.56
2024-04-19T16:21:10.684Z,9.51
2024-04-19T16:23:40.312Z,9.44
2024-04-19T16:26:09.307Z,9.38
2024-04-19T16:28:38.352Z,9.34
2024-04-19T16:31:07.366Z,9.30
2024-04-19T16:33:36.954Z,9.27
2024-04-19T16:36:07.463Z,9.21
2024-04-19T16:38:36.558Z,9.19
2024-04-19T16:41:05.816Z,9.16
2024-04-19T16:43:34.752Z,9.16
2024-04-19T16:46:03.982Z,9.16
2024-04-19T16:48:32.943Z,9.13
2024-04-19T16:51:01.868Z,9.13
2024-04-19T16:53:30.802Z,9.11
2024-04-19T16:55:59.858Z,9.08
2024-04-19T16:58:28.897Z,9.04
2024-04-19T17:00:57.978Z,9.01
2024-04-19T17:03:26.946Z,9.01
2024-04-19T17:05:55.963Z,9.02
2024-04-19T17:08:24.978Z,9.01
2024-04-19T17:10:53.941Z,9.03
2024-04-19T17:13:22.870Z,9.02
2024-04-19T17:15:51.868Z,8.98
2024-04-19T17:18:20.953Z,8.98
2024-04-19T17:20:50.266Z,8.98
2024-04-19T17:23:19.220Z,8.99
2024-04-19T17:25:48.493Z,8.98
2024-04-19T17:28:20.182Z,8.99
2024-04-19T17:30:50.181Z,8.99
2024-04-19T17:33:19.414Z,8.97
2024-04-19T17:35:48.476Z,8.95
2024-04-19T17:38:17.431Z,8.91
2024-04-19T17:40:48.508Z,8.87
2024-04-19T17:43:18.479Z,8.84
2024-04-19T17:45:47.467Z,8.82
2024-04-19T17:48:17.037Z,8.79
2024-04-19T17:50:46.224Z,8.79
2024-04-19T17:53:15.199Z,8.79
2024-04-19T17:55:49.466Z,8.77
2024-04-19T17:58:18.659Z,8.75
2024-04-19T18:00:48.841Z,8.70
2024-04-19T18:03:18.098Z,8.66
2024-04-19T18:05:47.088Z,8.65
2024-04-19T18:08:16.350Z,8.65
2024-04-19T18:10:45.291Z,8.65
2024-04-19T18:13:14.324Z,8.64
2024-04-19T18:15:43.205Z,8.62
2024-04-19T18:18:12.327Z,8.62
2024-04-19T18:20:44.157Z,8.60
2024-04-19T18:23:15.635Z,8.58
2024-04-19T18:25:46.993Z,8.55
2024-04-19T18:28:16.711Z,8.55
2024-04-19T18:30:45.602Z,8.54
2024-04-19T18:33:14.519Z,8.53
2024-04-19T18:35:45.635Z,8.53
2024-04-19T18:38:14.583Z,8.49
2024-04-19T18:40:46.366Z,8.46
2024-04-19T18:43:15.516Z,8.44
2024-04-19T18:45:47.003Z,8.41
2024-04-19T18:48:16.295Z,8.37
2024-04-19T18:50:45.309Z,8.33
2024-04-19T18:53:14.208Z,8.32
2024-04-19T18:55:43.172Z,8.31
2024-04-19T18:58:12.053Z,8.31
2024-04-19T19:00:40.932Z,8.30
2024-04-19T19:03:09.969Z,8.31
2024-04-19T19:05:38.908Z,8.31
2024-04-19T19:08:09.711Z,8.30
2024-04-19T19:10:38.716Z,8.29
2024-04-19T19:13:08.128Z,8.27
2024-04-19T19:15:37.125Z,8.22
2024-04-19T19:18:08.040Z,8.19
2024-04-19T19:20:36.950Z,8.14
2024-04-19T19:23:06.135Z,8.11
2024-04-19T19:25:38.157Z,8.07
2024-04-19T19:28:07.505Z,8.04
2024-04-19T19:30:39.562Z,8.01
2024-04-19T19:33:09.295Z,7.99
2024-04-19T19:35:38.498Z,7.96
2024-04-19T19:38:07.436Z,7.92
2024-04-19T19:40:36.386Z,7.89
2024-04-19T19:43:05.655Z,7.90
2024-04-19T19:45:34.530Z,7.89
2024-04-19T19:48:03.781Z,7.90
2024-04-19T19:50:32.861Z,7.91
2024-04-19T19:53:01.707Z,7.92
2024-04-19T19:55:30.537Z,7.94
2024-04-19T19:57:59.422Z,7.95
2024-04-19T20:00:46.986Z,7.93
2024-04-19T20:03:34.305Z,7.90
2024-04-19T20:06:03.669Z,7.87
2024-04-19T20:08:32.668Z,7.84
2024-04-19T20:11:01.900Z,7.84
2024-04-19T20:13:31.168Z,7.82
2024-04-19T20:16:00.136Z,7.79
2024-04-19T20:18:29.158Z,7.77
2024-04-19T20:20:58.389Z,7.75
2024-04-19T20:23:27.287Z,7.71
2024-04-19T20:25:56.625Z,7.70
2024-04-19T20:28:25.748Z,7.69
2024-04-19T20:30:54.882Z,7.66
2024-04-19T20:33:24.114Z,7.66
2024-04-19T20:35:53.156Z,7.65
2024-04-19T20:38:25.574Z,7.63
2024-04-19T20:40:54.631Z,7.60
2024-04-19T20:43:23.619Z,7.58
2024-04-19T20:45:52.694Z,7.56
2024-04-19T20:48:21.852Z,7.55
2024-04-19T20:50:51.662Z,7.54
2024-04-19T20:53:20.717Z,7.47
2024-04-19T20:55:49.803Z,7.44
2024-04-19T20:58:19.101Z,7.42
2024-04-19T21:00:48.039Z,7.40
2024-04-19T21:03:19.482Z,7.38
2024-04-19T21:05:48.822Z,7.38
2024-04-19T21:08:17.924Z,7.38
2024-04-19T21:10:46.849Z,7.39
2024-04-19T21:13:18.232Z,7.39
2024-04-19T21:16:06.051Z,7.40
2024-04-19T21:18:42.743Z,7.40
2024-04-19T21:21:11.772Z,7.41
2024-04-19T21:23:40.685Z,7.41
2024-04-19T21:26:09.662Z,7.44
2024-04-19T21:28:39.832Z,7.47
2024-04-19T21:31:09.736Z,7.49
2024-04-19T21:33:39.242Z,7.51
2024-04-19T21:36:09.913Z,7.50
2024-04-19T21:38:38.982Z,7.50
2024-04-19T21:41:08.386Z,7.51
2024-04-19T21:43:37.547Z,7.53
2024-04-19T21:46:07.148Z,7.56
2024-04-19T21:48:37.117Z,7.59
2024-04-19T21:51:09.035Z,7.59
2024-04-19T21:53:37.983Z,7.61
2024-04-19T21:56:07.869Z,7.61
2024-04-19T21:59:00.169Z,7.61
2024-04-19T22:01:31.346Z,7.60
2024-04-19T22:04:00.616Z,7.60
2024-04-19T22:06:29.662Z,7.61
2024-04-19T22:08:58.564Z,7.62
2024-04-19T22:11:27.410Z,7.64
2024-04-19T22:13:56.265Z,7.66
2024-04-19T22:16:25.530Z,7.67
2024-04-19T22:18:54.347Z,7.67
2024-04-19T22:21:23.165Z,7.69
2024-04-19T22:23:52.019Z,7.70
2024-04-19T22:26:20.923Z,7.72
2024-04-19T22:28:50.633Z,7.73
2024-04-19T22:31:19.613Z,7.74
2024-04-19T22:33:50.126Z,7.75
2024-04-19T22:36:18.986Z,7.78
2024-04-19T22:38:47.874Z,7.81
2024-04-19T22:41:16.684Z,7.84
2024-04-19T22:43:45.469Z,7.85
2024-04-19T22:46:14.414Z,7.85
2024-04-19T22:48:43.307Z,7.88
2024-04-19T22:51:12.155Z,7.87
2024-04-19T22:53:41.215Z,7.88
2024-04-19T22:56:10.097Z,7.89
2024-04-19T22:58:39.462Z,7.88
2024-04-19T23:01:10.743Z,7.89
2024-04-19T23:03:40.489Z,7.90
2024-04-19T23:06:10.442Z,7.90
2024-04-19T23:08:39.927Z,7.90
2024-04-19T23:11:09.829Z,7.90
2024-04-19T23:13:39.873Z,7.92
2024-04-19T23:16:09.791Z,7.94
2024-04-19T23:18:39.183Z,7.95
2024-04-19T23:21:08.705Z,7.94
2024-04-19T23:23:40.074Z,7.93
2024-04-19T23:26:10.566Z,7.93
2024-04-19T23:28:40.618Z,7.93
2024-04-19T23:31:10.117Z,7.92
2024-04-19T23:33:39.412Z,7.92
2024-04-19T23:36:10.015Z,7.92
2024-04-19T23:38:38.988Z,7.92
2024-04-19T23:41:08.028Z,7.91
2024-04-19T23:43:36.941Z,7.90
2024-04-19T23:46:06.252Z,7.88
2024-04-19T23:48:35.612Z,7.87
2024-04-19T23:51:05.646Z,7.86
2024-04-19T23:53:34.642Z,7.86
2024-04-19T23:56:03.933Z,7.86
2024-04-19T23:58:32.898Z,7.85
